sensor_id;sensor_type;location;lat;lon;timestamp;pressure;altitude;pressure_sealevel;temperature;humidity
7748;BME280;3918;42.564;23.164;2023-02-01T06:02:28;-11650.84;;;-142.29;100.00
7748;BME280;3918;42.564;23.164;2023-02-01T06:04:55;-11650.84;;;-142.29;100.00
7748;BME280;3918;42.564;23.164;2023-02-01T06:07:21;-11650.84;;;-142.29;100.00
7748;BME280;3918;42.564;23.164;2023-02-01T06:09:49;-11650.84;;;-142.29;100.00
7748;BME280;3918;42.564;23.164;2023-02-01T06:12:15;-11650.84;;;-142.29;100.00
7748;BME280;3918;42.564;23.164;2023-02-01T06:14:42;-11650.84;;;-142.29;100.00
7748;BME280;3918;42.564;23.164;2023-02-01T06:17:09;-11650.84;;;-142.29;100.00
7748;BME280;3918;42.564;23.164;2023-02-01T06:19:37;-11650.84;;;-142.29;100.00
7748;BME280;3918;42.564;23.164;2023-02-01T06:22:05;-11650.84;;;-142.29;100.00
7748;BME280;3918;42.564;23.164;2023-02-01T06:24:32;-11650.84;;;-142.29;100.00
7748;BME280;3918;42.564;23.164;2023-02-01T06:26:59;-11650.84;;;-142.29;100.00
7748;BME280;3918;42.564;23.164;2023-02-01T06:29:26;-11650.84;;;-142.29;100.00
7748;BME280;3918;42.564;23.164;2023-02-01T06:31:52;-11650.84;;;-142.29;100.00
7748;BME280;3918;42.564;23.164;2023-02-01T06:34:20;-11650.84;;;-142.29;100.00
7748;BME280;3918;42.564;23.164;2023-02-01T06:36:49;-11650.84;;;-142.29;100.00
7748;BME280;3918;42.564;23.164;2023-02-01T06:39:15;-11650.84;;;-142.29;100.00
7748;BME280;3918;42.564;23.164;2023-02-01T06:41:42;-11650.84;;;-142.29;100.00
7748;BME280;3918;42.564;23.164;2023-02-01T06:44:09;-11650.84;;;-142.29;100.00
7748;BME280;3918;42.564;23.164;2023-02-01T06:46:36;-11650.84;;;-142.29;100.00
7748;BME280;3918;42.564;23.164;2023-02-01T06:49:03;-11650.84;;;-142.29;100.00
7748;BME280;3918;42.564;23.164;2023-02-01T06:51:29;-11650.84;;;-142.29;100.00
7748;BME280;3918;42.564;23.164;2023-02-01T06:53:58;-11650.84;;;-142.29;100.00
7748;BME280;3918;42.564;23.164;2023-02-01T06:56:24;-11650.84;;;-142.29;100.00
7748;BME280;3918;42.564;23.164;2023-02-01T06:58:51;-11650.84;;;-142.29;100.00
7748;BME280;3918;42.564;23.164;2023-02-01T07:01:18;-11650.84;;;-142.29;100.00
7748;BME280;3918;42.564;23.164;2023-02-01T07:03:47;-11650.84;;;-142.29;100.00
7748;BME280;3918;42.564;23.164;2023-02-01T07:06:16;-11650.84;;;-142.29;100.00
7748;BME280;3918;42.564;23.164;2023-02-01T07:08:44;-11650.84;;;-142.29;100.00
7748;BME280;3918;42.564;23.164;2023-02-01T07:11:13;-11650.84;;;-142.29;100.00
7748;BME280;3918;42.564;23.164;2023-02-01T07:13:40;-11650.84;;;-142.29;100.00
7748;BME280;3918;42.564;23.164;2023-02-01T07:16:10;-11650.84;;;-142.29;100.00
7748;BME280;3918;42.564;23.164;2023-02-01T07:18:37;-11650.84;;;-142.29;100.00
7748;BME280;3918;42.564;23.164;2023-02-01T07:21:04;-11650.84;;;-142.29;100.00
7748;BME280;3918;42.564;23.164;2023-02-01T07:23:31;-11650.84;;;-142.29;100.00
7748;BME280;3918;42.564;23.164;2023-02-01T07:25:59;-11650.84;;;-142.29;100.00
7748;BME280;3918;42.564;23.164;2023-02-01T07:28:29;-11650.84;;;-142.29;100.00
7748;BME280;3918;42.564;23.164;2023-02-01T07:31:02;-11650.84;;;-142.29;100.00
7748;BME280;3918;42.564;23.164;2023-02-01T07:33:29;-11650.84;;;-142.29;100.00
7748;BME280;3918;42.564;23.164;2023-02-01T07:35:55;-11650.84;;;-142.29;100.00
7748;BME280;3918;42.564;23.164;2023-02-01T07:38:22;-11650.84;;;-142.29;100.00
7748;BME280;3918;42.564;23.164;2023-02-01T07:40:49;-11650.84;;;-142.29;100.00
7748;BME280;3918;42.564;23.164;2023-02-01T07:43:16;-11650.84;;;-142.29;100.00
7748;BME280;3918;42.564;23.164;2023-02-01T07:45:50;-11650.84;;;-142.29;100.00
7748;BME280;3918;42.564;23.164;2023-02-01T07:48:17;-11650.84;;;-142.29;100.00
7748;BME280;3918;42.564;23.164;2023-02-01T07:50:44;-11650.84;;;-142.29;100.00
7748;BME280;3918;42.564;23.164;2023-02-01T07:53:10;-11650.84;;;-142.29;100.00
7748;BME280;3918;42.564;23.164;2023-02-01T07:55:37;-11650.84;;;-142.29;100.00
7748;BME280;3918;42.564;23.164;2023-02-01T07:58:04;-11650.84;;;-142.29;100.00
7748;BME280;3918;42.564;23.164;2023-02-01T08:00:31;-11650.84;;;-142.29;100.00
7748;BME280;3918;42.564;23.164;2023-02-01T08:03:16;-11650.84;;;-142.29;100.00
7748;BME280;3918;42.564;23.164;2023-02-01T08:05:43;-11650.84;;;-142.29;100.00
7748;BME280;3918;42.564;23.164;2023-02-01T08:08:10;-11650.84;;;-142.29;100.00
7748;BME280;3918;42.564;23.164;2023-02-01T08:10:36;-11650.84;;;-142.29;100.00
7748;BME280;3918;42.564;23.164;2023-02-01T08:13:03;-11650.84;;;-142.29;100.00
7748;BME280;3918;42.564;23.164;2023-02-01T08:15:30;-11650.84;;;-142.29;100.00
7748;BME280;3918;42.564;23.164;2023-02-01T08:17:57;-11650.84;;;-142.29;100.00
7748;BME280;3918;42.564;23.164;2023-02-01T08:20:25;-11650.84;;;-142.29;100.00
7748;BME280;3918;42.564;23.164;2023-02-01T08:22:52;-11650.84;;;-142.29;100.00
7748;BME280;3918;42.564;23.164;2023-02-01T08:25:19;-11650.84;;;-142.29;100.00
7748;BME280;3918;42.564;23.164;2023-02-01T08:27:46;-11650.84;;;-142.29;100.00
7748;BME280;3918;42.564;23.164;2023-02-01T08:30:13;-11650.84;;;-142.29;100.00
7748;BME280;3918;42.564;23.164;2023-02-01T08:32:40;-11650.84;;;-142.29;100.00
7748;BME280;3918;42.564;23.164;2023-02-01T08:35:07;-11650.84;;;-142.29;100.00
7748;BME280;3918;42.564;23.164;2023-02-01T08:37:36;-11650.84;;;-142.29;100.00
7748;BME280;3918;42.564;23.164;2023-02-01T08:40:03;-11650.84;;;-142.29;100.00
7748;BME280;3918;42.564;23.164;2023-02-01T08:42:30;-11650.84;;;-142.29;100.00
7748;BME280;3918;42.564;23.164;2023-02-01T08:45:14;-11650.84;;;-142.29;100.00
7748;BME280;3918;42.564;23.164;2023-02-01T08:47:41;-11650.84;;;-142.29;100.00
7748;BME280;3918;42.564;23.164;2023-02-01T08:50:09;-11650.84;;;-142.29;100.00
7748;BME280;3918;42.564;23.164;2023-02-01T08:52:37;-11650.84;;;-142.29;100.00
7748;BME280;3918;42.564;23.164;2023-02-01T08:55:05;-11650.84;;;-142.29;100.00
7748;BME280;3918;42.564;23.164;2023-02-01T08:57:32;-11650.84;;;-142.29;100.00
7748;BME280;3918;42.564;23.164;2023-02-01T08:59:59;-11650.84;;;-142.29;100.00
7748;BME280;3918;42.564;23.164;2023-02-01T09:02:26;-11650.84;;;-142.29;99.76
7748;BME280;3918;42.564;23.164;2023-02-01T09:04:53;-11650.84;;;-142.29;94.38
7748;BME280;3918;42.564;23.164;2023-02-01T09:07:20;-11650.84;;;-142.29;96.60
7748;BME280;3918;42.564;23.164;2023-02-01T09:09:48;-11650.84;;;-142.29;94.75
7748;BME280;3918;42.564;23.164;2023-02-01T09:12:15;-11650.84;;;-142.29;90.51
7748;BME280;3918;42.564;23.164;2023-02-01T09:14:41;-11650.84;;;-142.29;88.23
7748;BME280;3918;42.564;23.164;2023-02-01T09:17:08;-11650.84;;;-142.29;90.12
7748;BME280;3918;42.564;23.164;2023-02-01T09:19:35;-11650.84;;;-142.29;89.78
7748;BME280;3918;42.564;23.164;2023-02-01T09:22:02;-11650.84;;;-142.29;87.66
7748;BME280;3918;42.564;23.164;2023-02-01T09:24:28;-11650.84;;;-142.29;82.61
7748;BME280;3918;42.564;23.164;2023-02-01T09:26:57;-11650.84;;;-142.29;80.85
7748;BME280;3918;42.564;23.164;2023-02-01T09:29:23;-11650.84;;;-142.29;76.45
7748;BME280;3918;42.564;23.164;2023-02-01T09:31:50;-11650.84;;;-142.29;74.58
7748;BME280;3918;42.564;23.164;2023-02-01T09:34:17;-11650.84;;;-142.29;70.56
7748;BME280;3918;42.564;23.164;2023-02-01T09:36:43;-11650.84;;;-142.29;69.74
7748;BME280;3918;42.564;23.164;2023-02-01T09:39:10;-11650.84;;;-142.29;71.09
7748;BME280;3918;42.564;23.164;2023-02-01T09:41:43;-11650.84;;;-142.29;73.54
7748;BME280;3918;42.564;23.164;2023-02-01T09:44:25;-11650.84;;;-142.29;70.27
7748;BME280;3918;42.564;23.164;2023-02-01T09:46:58;-11650.84;;;-142.29;70.79
7748;BME280;3918;42.564;23.164;2023-02-01T09:49:29;-11650.84;;;-142.29;73.01
7748;BME280;3918;42.564;23.164;2023-02-01T09:51:57;-11650.84;;;-142.29;75.82
7748;BME280;3918;42.564;23.164;2023-02-01T09:54:27;-11650.84;;;-142.29;75.15
7748;BME280;3918;42.564;23.164;2023-02-01T09:57:00;-11650.84;;;-142.29;78.08
7748;BME280;3918;42.564;23.164;2023-02-01T09:59:41;-11650.84;;;-142.29;83.13
7748;BME280;3918;42.564;23.164;2023-02-01T10:02:13;-11650.84;;;-142.29;83.73
7748;BME280;3918;42.564;23.164;2023-02-01T10:04:42;-11650.84;;;-142.29;77.19
7748;BME280;3918;42.564;23.164;2023-02-01T10:07:21;-11650.84;;;-142.29;70.79
7748;BME280;3918;42.564;23.164;2023-02-01T10:09:59;-11650.84;;;-142.29;68.44
7748;BME280;3918;42.564;23.164;2023-02-01T10:15:42;-11650.84;;;-142.29;64.46
7748;BME280;3918;42.564;23.164;2023-02-01T10:18:22;-11650.84;;;-142.29;63.21
7748;BME280;3918;42.564;23.164;2023-02-01T10:20:57;-11650.84;;;-142.29;62.94
7748;BME280;3918;42.564;23.164;2023-02-01T10:23:56;-11650.84;;;-142.29;61.21
7748;BME280;3918;42.564;23.164;2023-02-01T10:26:29;-11650.84;;;-142.29;60.38
7748;BME280;3918;42.564;23.164;2023-02-01T10:29:01;-11650.84;;;-142.29;61.68
7748;BME280;3918;42.564;23.164;2023-02-01T10:31:33;-11650.84;;;-142.29;64.41
7748;BME280;3918;42.564;23.164;2023-02-01T10:34:09;-11650.84;;;-142.29;60.52
7748;BME280;3918;42.564;23.164;2023-02-01T10:36:42;-11650.84;;;-142.29;63.50
7748;BME280;3918;42.564;23.164;2023-02-01T10:39:15;-11650.84;;;-142.29;65.63
7748;BME280;3918;42.564;23.164;2023-02-01T10:41:42;-11650.84;;;-142.29;67.37
7748;BME280;3918;42.564;23.164;2023-02-01T10:44:12;-11650.84;;;-142.29;67.29
7748;BME280;3918;42.564;23.164;2023-02-01T10:46:42;-11650.84;;;-142.29;65.37
7748;BME280;3918;42.564;23.164;2023-02-01T10:49:13;-11650.84;;;-142.29;66.57
7748;BME280;3918;42.564;23.164;2023-02-01T10:51:45;-11650.84;;;-142.29;67.17
7748;BME280;3918;42.564;23.164;2023-02-01T10:54:17;-11650.84;;;-142.29;68.61
7748;BME280;3918;42.564;23.164;2023-02-01T10:56:46;-11650.84;;;-142.29;73.69
7748;BME280;3918;42.564;23.164;2023-02-01T10:59:16;-11650.84;;;-142.29;70.25
7748;BME280;3918;42.564;23.164;2023-02-01T11:01:47;-11650.84;;;-142.29;68.92
7748;BME280;3918;42.564;23.164;2023-02-01T11:04:15;-11650.84;;;-142.29;63.61
7748;BME280;3918;42.564;23.164;2023-02-01T11:06:44;-11650.84;;;-142.29;62.06
7748;BME280;3918;42.564;23.164;2023-02-01T11:09:17;-11650.84;;;-142.29;59.63
7748;BME280;3918;42.564;23.164;2023-02-01T11:11:57;-11650.84;;;-142.29;61.68
7748;BME280;3918;42.564;23.164;2023-02-01T11:14:34;-11650.84;;;-142.29;59.74
7748;BME280;3918;42.564;23.164;2023-02-01T11:17:17;-11650.84;;;-142.29;60.26
7748;BME280;3918;42.564;23.164;2023-02-01T11:19:56;-11650.84;;;-142.29;61.30
7748;BME280;3918;42.564;23.164;2023-02-01T11:22:24;-11650.84;;;-142.29;61.09
7748;BME280;3918;42.564;23.164;2023-02-01T11:24:52;-11650.84;;;-142.29;58.43
7748;BME280;3918;42.564;23.164;2023-02-01T11:27:21;-11650.84;;;-142.29;61.29
7748;BME280;3918;42.564;23.164;2023-02-01T11:29:52;-11650.84;;;-142.29;59.53
7748;BME280;3918;42.564;23.164;2023-02-01T11:32:22;-11650.84;;;-142.29;61.64
7748;BME280;3918;42.564;23.164;2023-02-01T11:34:53;-11650.84;;;-142.29;62.24
7748;BME280;3918;42.564;23.164;2023-02-01T11:37:22;-11650.84;;;-142.29;61.82
7748;BME280;3918;42.564;23.164;2023-02-01T11:39:55;-11650.84;;;-142.29;64.12
7748;BME280;3918;42.564;23.164;2023-02-01T11:42:22;-11650.84;;;-142.29;63.87
7748;BME280;3918;42.564;23.164;2023-02-01T11:44:49;-11650.84;;;-142.29;63.28
7748;BME280;3918;42.564;23.164;2023-02-01T11:47:27;-11650.84;;;-142.29;67.66
7748;BME280;3918;42.564;23.164;2023-02-01T11:49:57;-11650.84;;;-142.29;64.65
7748;BME280;3918;42.564;23.164;2023-02-01T11:52:34;-11650.84;;;-142.29;64.88
7748;BME280;3918;42.564;23.164;2023-02-01T11:55:43;-11650.84;;;-142.29;64.32
7748;BME280;3918;42.564;23.164;2023-02-01T11:58:22;-11650.84;;;-142.29;60.53
7748;BME280;3918;42.564;23.164;2023-02-01T12:01:03;-11650.84;;;-142.29;59.63
7748;BME280;3918;42.564;23.164;2023-02-01T12:04:17;-11650.84;;;-142.29;60.56
7748;BME280;3918;42.564;23.164;2023-02-01T12:06:49;-11650.84;;;-142.29;60.82
7748;BME280;3918;42.564;23.164;2023-02-01T12:09:27;-11650.84;;;-142.29;62.65
7748;BME280;3918;42.564;23.164;2023-02-01T12:12:06;-11650.84;;;-142.29;61.26
7748;BME280;3918;42.564;23.164;2023-02-01T12:14:48;-11650.84;;;-142.29;61.80
7748;BME280;3918;42.564;23.164;2023-02-01T12:17:42;-11650.84;;;-142.29;62.62
7748;BME280;3918;42.564;23.164;2023-02-01T12:20:31;-11650.84;;;-142.29;59.28
7748;BME280;3918;42.564;23.164;2023-02-01T12:23:10;-11650.84;;;-142.29;61.07
7748;BME280;3918;42.564;23.164;2023-02-01T12:25:58;-11650.84;;;-142.29;62.15
7748;BME280;3918;42.564;23.164;2023-02-01T12:28:59;-11650.84;;;-142.29;60.94
7748;BME280;3918;42.564;23.164;2023-02-01T12:31:53;-11650.84;;;-142.29;61.70
7748;BME280;3918;42.564;23.164;2023-02-01T12:37:28;-11650.84;;;-142.29;62.44
7748;BME280;3918;42.564;23.164;2023-02-01T12:40:04;-11650.84;;;-142.29;59.71
7748;BME280;3918;42.564;23.164;2023-02-01T12:42:41;-11650.84;;;-142.29;60.14
7748;BME280;3918;42.564;23.164;2023-02-01T12:45:13;-11650.84;;;-142.29;57.84
7748;BME280;3918;42.564;23.164;2023-02-01T12:47:44;-11650.84;;;-142.29;58.22
7748;BME280;3918;42.564;23.164;2023-02-01T12:50:15;-11650.84;;;-142.29;56.96
7748;BME280;3918;42.564;23.164;2023-02-01T12:52:50;-11650.84;;;-142.29;56.72
7748;BME280;3918;42.564;23.164;2023-02-01T12:55:22;-11650.84;;;-142.29;57.28
7748;BME280;3918;42.564;23.164;2023-02-01T12:57:52;-11650.84;;;-142.29;57.13
7748;BME280;3918;42.564;23.164;2023-02-01T13:00:26;-11650.84;;;-142.29;57.60
7748;BME280;3918;42.564;23.164;2023-02-01T13:02:59;-11650.84;;;-142.29;58.01
7748;BME280;3918;42.564;23.164;2023-02-01T13:05:30;-11650.84;;;-142.29;58.01
7748;BME280;3918;42.564;23.164;2023-02-01T13:08:03;-11650.84;;;-142.29;58.36
7748;BME280;3918;42.564;23.164;2023-02-01T13:10:35;-11650.84;;;-142.29;58.77
7748;BME280;3918;42.564;23.164;2023-02-01T13:13:11;-11650.84;;;-142.29;59.45
7748;BME280;3918;42.564;23.164;2023-02-01T13:15:41;-11650.84;;;-142.29;60.51
7748;BME280;3918;42.564;23.164;2023-02-01T13:18:14;-11650.84;;;-142.29;65.23
7748;BME280;3918;42.564;23.164;2023-02-01T13:20:49;-11650.84;;;-142.29;65.54
7748;BME280;3918;42.564;23.164;2023-02-01T13:23:24;-11650.84;;;-142.29;67.91
7748;BME280;3918;42.564;23.164;2023-02-01T13:25:53;-11650.84;;;-142.29;68.44
7748;BME280;3918;42.564;23.164;2023-02-01T13:28:29;-11650.84;;;-142.29;69.62
7748;BME280;3918;42.564;23.164;2023-02-01T13:31:24;-11650.84;;;-142.29;68.01
7748;BME280;3918;42.564;23.164;2023-02-01T13:36:49;-11650.84;;;-142.29;61.67
7748;BME280;3918;42.564;23.164;2023-02-01T13:39:50;-11650.84;;;-142.29;60.57
7748;BME280;3918;42.564;23.164;2023-02-01T13:42:22;-11650.84;;;-142.29;60.67
7748;BME280;3918;42.564;23.164;2023-02-01T13:44:54;-11650.84;;;-142.29;59.44
7748;BME280;3918;42.564;23.164;2023-02-01T13:47:25;-11650.84;;;-142.29;62.08
7748;BME280;3918;42.564;23.164;2023-02-01T13:49:54;-11650.84;;;-142.29;61.69
7748;BME280;3918;42.564;23.164;2023-02-01T13:52:32;-11650.84;;;-142.29;60.72
7748;BME280;3918;42.564;23.164;2023-02-01T13:55:24;-11650.84;;;-142.29;60.75
7748;BME280;3918;42.564;23.164;2023-02-01T13:58:00;-11650.84;;;-142.29;62.14
7748;BME280;3918;42.564;23.164;2023-02-01T14:00:29;-11650.84;;;-142.29;62.76
7748;BME280;3918;42.564;23.164;2023-02-01T14:03:08;-11650.84;;;-142.29;62.38
7748;BME280;3918;42.564;23.164;2023-02-01T14:05:59;-11650.84;;;-142.29;63.38
7748;BME280;3918;42.564;23.164;2023-02-01T14:11:36;-11650.84;;;-142.29;64.19
7748;BME280;3918;42.564;23.164;2023-02-01T14:17:32;-11650.84;;;-142.29;61.02
7748;BME280;3918;42.564;23.164;2023-02-01T14:23:27;-11650.84;;;-142.29;62.02
7748;BME280;3918;42.564;23.164;2023-02-01T14:26:17;-11650.84;;;-142.29;59.33
7748;BME280;3918;42.564;23.164;2023-02-01T14:28:51;-11650.84;;;-142.29;59.69
7748;BME280;3918;42.564;23.164;2023-02-01T14:31:35;-11650.84;;;-142.29;60.43
7748;BME280;3918;42.564;23.164;2023-02-01T14:34:12;-11650.84;;;-142.29;60.20
7748;BME280;3918;42.564;23.164;2023-02-01T14:36:44;-11650.84;;;-142.29;59.91
7748;BME280;3918;42.564;23.164;2023-02-01T14:39:27;-11650.84;;;-142.29;60.09
7748;BME280;3918;42.564;23.164;2023-02-01T14:41:58;-11650.84;;;-142.29;62.03
7748;BME280;3918;42.564;23.164;2023-02-01T14:44:30;-11650.84;;;-142.29;63.68
7748;BME280;3918;42.564;23.164;2023-02-01T14:47:26;-11650.84;;;-142.29;65.16
7748;BME280;3918;42.564;23.164;2023-02-01T14:50:11;-11650.84;;;-142.29;67.76
7748;BME280;3918;42.564;23.164;2023-02-01T14:52:41;-11650.84;;;-142.29;70.42
7748;BME280;3918;42.564;23.164;2023-02-01T14:55:15;-11650.84;;;-142.29;72.64
7748;BME280;3918;42.564;23.164;2023-02-01T14:57:47;-11650.84;;;-142.29;77.15
7748;BME280;3918;42.564;23.164;2023-02-01T15:00:21;-11650.84;;;-142.29;77.80
7748;BME280;3918;42.564;23.164;2023-02-01T15:02:49;-11650.84;;;-142.29;79.66
7748;BME280;3918;42.564;23.164;2023-02-01T15:05:26;-11650.84;;;-142.29;82.97
7748;BME280;3918;42.564;23.164;2023-02-01T15:07:58;-11650.84;;;-142.29;83.19
7748;BME280;3918;42.564;23.164;2023-02-01T15:10:27;-11650.84;;;-142.29;84.27
7748;BME280;3918;42.564;23.164;2023-02-01T15:12:56;-11650.84;;;-142.29;85.09
7748;BME280;3918;42.564;23.164;2023-02-01T15:15:24;-11650.84;;;-142.29;87.28
7748;BME280;3918;42.564;23.164;2023-02-01T15:17:53;-11650.84;;;-142.29;89.53
7748;BME280;3918;42.564;23.164;2023-02-01T15:20:22;-11650.84;;;-142.29;93.00
7748;BME280;3918;42.564;23.164;2023-02-01T15:22:54;-11650.84;;;-142.29;93.97
7748;BME280;3918;42.564;23.164;2023-02-01T15:25:23;-11650.84;;;-142.29;93.70
7748;BME280;3918;42.564;23.164;2023-02-01T15:27:51;-11650.84;;;-142.29;95.78
7748;BME280;3918;42.564;23.164;2023-02-01T15:30:20;-11650.84;;;-142.29;98.08
7748;BME280;3918;42.564;23.164;2023-02-01T15:32:49;-11650.84;;;-142.29;98.26
7748;BME280;3918;42.564;23.164;2023-02-01T15:35:40;-11650.84;;;-142.29;93.86
7748;BME280;3918;42.564;23.164;2023-02-01T15:38:41;-11650.84;;;-142.29;94.57
7748;BME280;3918;42.564;23.164;2023-02-01T15:41:12;-11650.84;;;-142.29;95.47
7748;BME280;3918;42.564;23.164;2023-02-01T15:43:41;-11650.84;;;-142.29;100.00
7748;BME280;3918;42.564;23.164;2023-02-01T15:46:12;-11650.84;;;-142.29;100.00
7748;BME280;3918;42.564;23.164;2023-02-01T15:48:47;-11650.84;;;-142.29;100.00
7748;BME280;3918;42.564;23.164;2023-02-01T15:51:17;-11650.84;;;-142.29;100.00
7748;BME280;3918;42.564;23.164;2023-02-01T15:53:51;-11650.84;;;-142.29;100.00
7748;BME280;3918;42.564;23.164;2023-02-01T15:56:24;-11650.84;;;-142.29;100.00
7748;BME280;3918;42.564;23.164;2023-02-01T15:58:54;-11650.84;;;-142.29;100.00
7748;BME280;3918;42.564;23.164;2023-02-01T16:01:22;-11650.84;;;-142.29;100.00
7748;BME280;3918;42.564;23.164;2023-02-01T16:04:02;-11650.84;;;-142.29;100.00
7748;BME280;3918;42.564;23.164;2023-02-01T16:06:30;-11650.84;;;-142.29;100.00
7748;BME280;3918;42.564;23.164;2023-02-01T16:09:03;-11650.84;;;-142.29;100.00
7748;BME280;3918;42.564;23.164;2023-02-01T16:11:32;-11650.84;;;-142.29;100.00
7748;BME280;3918;42.564;23.164;2023-02-01T16:13:59;-11650.84;;;-142.29;100.00
7748;BME280;3918;42.564;23.164;2023-02-01T16:16:28;-11650.84;;;-142.29;100.00
7748;BME280;3918;42.564;23.164;2023-02-01T16:18:56;-11650.84;;;-142.29;100.00
7748;BME280;3918;42.564;23.164;2023-02-01T16:21:23;-11650.84;;;-142.29;100.00
7748;BME280;3918;42.564;23.164;2023-02-01T16:23:51;-11650.84;;;-142.29;100.00
7748;BME280;3918;42.564;23.164;2023-02-01T16:26:18;-11650.84;;;-142.29;100.00
7748;BME280;3918;42.564;23.164;2023-02-01T16:28:45;-11650.84;;;-142.29;100.00
7748;BME280;3918;42.564;23.164;2023-02-01T16:31:14;-11650.84;;;-142.29;100.00
7748;BME280;3918;42.564;23.164;2023-02-01T16:33:45;-11650.84;;;-142.29;100.00
7748;BME280;3918;42.564;23.164;2023-02-01T16:36:14;-11650.84;;;-142.29;100.00
7748;BME280;3918;42.564;23.164;2023-02-01T16:38:41;-11650.84;;;-142.29;100.00
7748;BME280;3918;42.564;23.164;2023-02-01T16:41:12;-11650.84;;;-142.29;100.00
7748;BME280;3918;42.564;23.164;2023-02-01T16:43:39;-11650.84;;;-142.29;100.00
7748;BME280;3918;42.564;23.164;2023-02-01T16:46:12;-11650.84;;;-142.29;100.00
7748;BME280;3918;42.564;23.164;2023-02-01T16:48:41;-11650.84;;;-142.29;100.00
7748;BME280;3918;42.564;23.164;2023-02-01T16:51:10;-11650.84;;;-142.29;100.00
7748;BME280;3918;42.564;23.164;2023-02-01T16:53:38;-11650.84;;;-142.29;100.00
7748;BME280;3918;42.564;23.164;2023-02-01T16:56:12;-11650.84;;;-142.29;100.00
7748;BME280;3918;42.564;23.164;2023-02-01T16:58:40;-11650.84;;;-142.29;100.00
7748;BME280;3918;42.564;23.164;2023-02-01T17:01:09;-11650.84;;;-142.29;100.00
7748;BME280;3918;42.564;23.164;2023-02-01T17:03:36;-11650.84;;;-142.29;100.00
7748;BME280;3918;42.564;23.164;2023-02-01T17:06:03;-11650.84;;;-142.29;100.00
7748;BME280;3918;42.564;23.164;2023-02-01T17:08:32;-11650.84;;;-142.29;100.00
7748;BME280;3918;42.564;23.164;2023-02-01T17:11:02;-11650.84;;;-142.29;100.00
7748;BME280;3918;42.564;23.164;2023-02-01T17:13:29;-11650.84;;;-142.29;100.00
7748;BME280;3918;42.564;23.164;2023-02-01T17:15:58;-11650.84;;;-142.29;100.00
7748;BME280;3918;42.564;23.164;2023-02-01T17:18:27;-11650.84;;;-142.29;100.00
7748;BME280;3918;42.564;23.164;2023-02-01T17:20:56;-11650.84;;;-142.29;100.00
7748;BME280;3918;42.564;23.164;2023-02-01T17:23:23;-11650.84;;;-142.29;100.00
7748;BME280;3918;42.564;23.164;2023-02-01T17:25:50;-11650.84;;;-142.29;100.00
7748;BME280;3918;42.564;23.164;2023-02-01T17:28:18;-11650.84;;;-142.29;100.00
7748;BME280;3918;42.564;23.164;2023-02-01T17:30:45;-11650.84;;;-142.29;100.00
7748;BME280;3918;42.564;23.164;2023-02-01T17:33:20;-11650.84;;;-142.29;100.00
7748;BME280;3918;42.564;23.164;2023-02-01T17:35:47;-11650.84;;;-142.29;100.00
7748;BME280;3918;42.564;23.164;2023-02-01T17:38:14;-11650.84;;;-142.29;100.00
7748;BME280;3918;42.564;23.164;2023-02-01T17:40:41;-11650.84;;;-142.29;100.00
7748;BME280;3918;42.564;23.164;2023-02-01T17:43:13;-11650.84;;;-142.29;100.00
7748;BME280;3918;42.564;23.164;2023-02-01T17:45:44;-11650.84;;;-142.29;100.00
7748;BME280;3918;42.564;23.164;2023-02-01T17:48:16;-11650.84;;;-142.29;100.00
7748;BME280;3918;42.564;23.164;2023-02-01T17:50:43;-11650.84;;;-142.29;100.00
7748;BME280;3918;42.564;23.164;2023-02-01T17:53:11;-11650.84;;;-142.29;100.00
7748;BME280;3918;42.564;23.164;2023-02-01T17:55:41;-11650.84;;;-142.29;100.00
7748;BME280;3918;42.564;23.164;2023-02-01T17:58:10;-11650.84;;;-142.29;100.00
7748;BME280;3918;42.564;23.164;2023-02-01T18:00:38;-11650.84;;;-142.29;100.00
7748;BME280;3918;42.564;23.164;2023-02-01T18:03:15;-11650.84;;;-142.29;100.00
7748;BME280;3918;42.564;23.164;2023-02-01T18:05:44;-11650.84;;;-142.29;100.00
7748;BME280;3918;42.564;23.164;2023-02-01T18:08:15;-11650.84;;;-142.29;100.00
7748;BME280;3918;42.564;23.164;2023-02-01T18:10:42;-11650.84;;;-142.29;100.00
7748;BME280;3918;42.564;23.164;2023-02-01T18:13:10;-11650.84;;;-142.29;100.00
7748;BME280;3918;42.564;23.164;2023-02-01T18:15:37;-11650.84;;;-142.29;100.00
7748;BME280;3918;42.564;23.164;2023-02-01T18:18:05;-11650.84;;;-142.29;100.00
7748;BME280;3918;42.564;23.164;2023-02-01T18:20:32;-11650.84;;;-142.29;100.00
7748;BME280;3918;42.564;23.164;2023-02-01T18:23:00;-11650.84;;;-142.29;100.00
7748;BME280;3918;42.564;23.164;2023-02-01T18:25:28;-11650.84;;;-142.29;100.00
7748;BME280;3918;42.564;23.164;2023-02-01T18:27:58;-11650.84;;;-142.29;100.00
7748;BME280;3918;42.564;23.164;2023-02-01T18:30:29;-11650.84;;;-142.29;100.00
7748;BME280;3918;42.564;23.164;2023-02-01T18:32:56;-11650.84;;;-142.29;100.00
7748;BME280;3918;42.564;23.164;2023-02-01T18:35:26;-11650.84;;;-142.29;100.00
7748;BME280;3918;42.564;23.164;2023-02-01T18:37:54;-11650.84;;;-142.29;100.00
7748;BME280;3918;42.564;23.164;2023-02-01T18:40:23;-11650.84;;;-142.29;100.00
7748;BME280;3918;42.564;23.164;2023-02-01T18:42:50;-11650.84;;;-142.29;100.00
7748;BME280;3918;42.564;23.164;2023-02-01T18:45:29;-11650.84;;;-142.29;100.00
7748;BME280;3918;42.564;23.164;2023-02-01T18:47:56;-11650.84;;;-142.29;100.00
7748;BME280;3918;42.564;23.164;2023-02-01T18:50:26;-11650.84;;;-142.29;100.00
7748;BME280;3918;42.564;23.164;2023-02-01T18:52:55;-11650.84;;;-142.29;100.00
7748;BME280;3918;42.564;23.164;2023-02-01T18:55:23;-11650.84;;;-142.29;100.00
7748;BME280;3918;42.564;23.164;2023-02-01T18:57:50;-11650.84;;;-142.29;100.00
7748;BME280;3918;42.564;23.164;2023-02-01T19:00:17;-11650.84;;;-142.29;100.00
7748;BME280;3918;42.564;23.164;2023-02-01T19:02:45;-11650.84;;;-142.29;100.00
7748;BME280;3918;42.564;23.164;2023-02-01T19:05:13;-11650.84;;;-142.29;100.00
7748;BME280;3918;42.564;23.164;2023-02-01T19:07:44;-11650.84;;;-142.29;100.00
7748;BME280;3918;42.564;23.164;2023-02-01T19:10:13;-11650.84;;;-142.29;100.00
7748;BME280;3918;42.564;23.164;2023-02-01T19:12:40;-11650.84;;;-142.29;100.00
7748;BME280;3918;42.564;23.164;2023-02-01T19:15:10;-11650.84;;;-142.29;100.00
7748;BME280;3918;42.564;23.164;2023-02-01T19:17:40;-11650.84;;;-142.29;100.00